Time;durP1;ratioP1;P1;durP2;ratioP2;P2;SDS_P1;SDS_P2;PMS_P1;PMS_P2;Temp;Humidity;BMP_temperature;BMP_pressure;BME280_temperature;BME280_humidity;BME280_pressure;Samples;Min_cycle;Max_cycle;Signal;HPM_P1;HPM_P2
2023/03/29 00:02:16;0.00;0.00;0.62;0.00;0.00;0.62;2.10;1.30;;;23.60;22.90;;;;;;2265800;61;20818;-60
2023/03/29 00:05:03;0.00;0.00;0.62;0.00;0.00;0.62;2.07;1.10;;;23.60;22.90;;;;;;2268792;61;20779;-61
2023/03/29 00:07:52;0.00;0.00;0.62;0.00;0.00;0.62;1.70;1.10;;;23.60;22.90;;;;;;2268472;61;20413;-61
2023/03/29 00:10:37;0.00;0.00;0.62;0.00;0.00;0.62;2.13;1.20;;;23.60;22.90;;;;;;2268514;61;20395;-60
2023/03/29 00:13:22;0.00;0.00;0.62;0.00;0.00;0.62;1.50;0.90;;;23.60;22.90;;;;;;2264892;61;20536;-57
2023/03/29 00:16:08;0.00;0.00;0.62;0.00;0.00;0.62;1.80;0.90;;;23.60;22.90;;;;;;2268782;61;20378;-58
2023/03/29 00:18:53;0.00;0.00;0.62;0.00;0.00;0.62;1.90;1.00;;;23.60;22.90;;;;;;2268498;61;20769;-59
2023/03/29 00:21:39;0.00;0.00;0.62;0.00;0.00;0.62;1.87;1.10;;;23.60;22.90;;;;;;2268274;61;20849;-57
2023/03/29 00:24:24;0.00;0.00;0.62;0.00;0.00;0.62;1.70;0.83;;;23.50;22.90;;;;;;2265859;61;20980;-60
2023/03/29 00:27:09;0.00;0.00;0.62;0.00;0.00;0.62;1.50;1.07;;;23.50;22.90;;;;;;2268424;61;20847;-60
2023/03/29 00:29:55;0.00;0.00;0.62;0.00;0.00;0.62;1.70;0.93;;;23.60;22.90;;;;;;2264935;61;20461;-56
2023/03/29 00:32:39;0.00;0.00;0.62;0.00;0.00;0.62;1.93;1.20;;;23.50;23.00;;;;;;2268983;61;20401;-61
2023/03/29 00:35:25;0.00;0.00;0.62;0.00;0.00;0.62;1.60;0.93;;;23.50;22.90;;;;;;2267927;61;20900;-58
2023/03/29 00:38:12;0.00;0.00;0.62;0.00;0.00;0.62;1.87;1.03;;;23.50;22.90;;;;;;2268975;61;20473;-57
2023/03/29 00:40:57;0.00;0.00;0.62;0.00;0.00;0.62;1.60;0.80;;;23.50;22.90;;;;;;2268127;61;20367;-60
2023/03/29 00:43:55;0.00;0.00;0.62;0.00;0.00;0.62;1.57;0.83;;;23.50;22.90;;;;;;2264947;61;20435;-58
2023/03/29 00:46:39;0.00;0.00;0.62;0.00;0.00;0.62;1.70;0.93;;;23.50;22.90;;;;;;2268882;61;20428;-58
2023/03/29 00:49:25;0.00;0.00;0.62;0.00;0.00;0.62;1.80;1.00;;;23.50;22.90;;;;;;2267708;61;20965;-58
2023/03/29 00:52:12;0.00;0.00;0.62;0.00;0.00;0.62;1.67;1.10;;;23.50;22.90;;;;;;2268754;61;20363;-58
2023/03/29 00:55:02;0.00;0.00;0.62;0.00;0.00;0.62;2.13;1.00;;;23.50;22.90;;;;;;2268902;61;20375;-59
2023/03/29 00:57:48;0.00;0.00;0.62;0.00;0.00;0.62;1.73;1.00;;;23.50;22.90;;;;;;2268090;61;20463;-61
2023/03/29 01:00:40;0.00;0.00;0.62;0.00;0.00;0.62;1.50;0.90;;;23.50;22.90;;;;;;2265350;61;20505;-60
2023/03/29 01:03:31;0.00;0.00;0.62;0.00;0.00;0.62;1.60;0.93;;;23.50;22.90;;;;;;2268345;61;20360;-61
2023/03/29 01:06:21;0.00;0.00;0.62;0.00;0.00;0.62;1.67;0.93;;;23.50;22.90;;;;;;2268111;61;20429;-59
2023/03/29 01:09:09;0.00;0.00;0.62;0.00;0.00;0.62;1.50;0.97;;;23.50;23.00;;;;;;2268534;61;20366;-55
2023/03/29 01:12:00;0.00;0.00;0.62;0.00;0.00;0.62;1.70;0.80;;;23.50;23.00;;;;;;2264985;61;20367;-58
2023/03/29 01:14:51;0.00;0.00;0.62;0.00;0.00;0.62;1.43;0.80;;;23.50;23.00;;;;;;2265695;61;20372;-54
2023/03/29 01:17:37;0.00;0.00;0.62;0.00;0.00;0.62;1.70;0.93;;;23.50;23.00;;;;;;2265592;61;20398;-53
2023/03/29 01:20:30;0.00;0.00;0.62;0.00;0.00;0.62;2.17;0.90;;;23.50;23.00;;;;;;2264753;61;20485;-58
2023/03/29 01:23:42;0.00;0.00;0.62;0.00;0.00;0.62;1.63;1.00;;;23.50;23.00;;;;;;2265501;61;20971;-56
2023/03/29 01:26:34;0.00;0.00;0.62;0.00;0.00;0.62;1.50;1.00;;;23.40;22.90;;;;;;2268501;61;20386;-57
2023/03/29 01:29:25;0.00;0.00;0.62;0.00;0.00;0.62;1.30;0.90;;;23.40;22.90;;;;;;2264824;61;20770;-58
2023/03/29 01:32:16;0.00;0.00;0.62;0.00;0.00;0.62;1.40;0.87;;;23.40;23.00;;;;;;2268756;61;20493;-58
2023/03/29 01:35:09;0.00;0.00;0.62;0.00;0.00;0.62;1.93;1.10;;;23.40;23.00;;;;;;2257427;61;20368;-53
2023/03/29 01:37:59;0.00;0.00;0.62;0.00;0.00;0.62;1.53;0.93;;;23.40;23.00;;;;;;2268897;61;20991;-60
2023/03/29 01:40:45;0.00;0.00;0.62;0.00;0.00;0.62;1.60;0.90;;;23.40;23.00;;;;;;2268010;61;20433;-53
2023/03/29 01:43:37;0.00;0.00;0.62;0.00;0.00;0.62;1.70;1.10;;;23.40;23.00;;;;;;2265011;61;21237;-56
2023/03/29 01:46:30;0.00;0.00;0.62;0.00;0.00;0.62;1.40;0.77;;;23.40;23.00;;;;;;2265599;61;20862;-55
2023/03/29 01:49:24;0.00;0.00;0.62;0.00;0.00;0.62;2.20;1.10;;;23.40;23.00;;;;;;2267722;61;20436;-55
2023/03/29 01:52:14;0.00;0.00;0.62;0.00;0.00;0.62;1.80;0.97;;;23.40;23.00;;;;;;2268683;61;20558;-59
2023/03/29 01:55:04;0.00;0.00;0.62;0.00;0.00;0.62;1.40;0.80;;;23.40;23.00;;;;;;2268335;61;20383;-56
2023/03/29 01:57:53;0.00;0.00;0.62;0.00;0.00;0.62;1.47;0.90;;;23.40;23.00;;;;;;2268089;61;20433;-58
2023/03/29 02:00:40;0.00;0.00;0.62;0.00;0.00;0.62;1.57;1.00;;;23.40;23.00;;;;;;2268333;61;20402;-58
2023/03/29 02:03:30;0.00;0.00;0.62;0.00;0.00;0.62;1.30;0.80;;;23.40;23.00;;;;;;2265160;61;20517;-57
2023/03/29 02:06:20;0.00;0.00;0.62;0.00;0.00;0.62;1.40;0.90;;;23.40;23.00;;;;;;2268419;61;20391;-55
2023/03/29 02:09:05;0.00;0.00;0.62;0.00;0.00;0.62;1.30;0.70;;;23.40;23.00;;;;;;2268129;61;20364;-58
2023/03/29 02:11:52;0.00;0.00;0.62;0.00;0.00;0.62;2.20;0.90;;;23.40;23.00;;;;;;2261673;61;20850;-61
2023/03/29 02:14:37;0.00;0.00;0.62;0.00;0.00;0.62;1.70;0.80;;;23.40;22.90;;;;;;2268351;61;20398;-61
2023/03/29 02:17:26;0.00;0.00;0.62;0.00;0.00;0.62;1.50;0.90;;;23.40;22.90;;;;;;2264995;61;20403;-57
2023/03/29 02:20:19;0.00;0.00;0.62;0.00;0.00;0.62;1.30;0.80;;;23.40;22.90;;;;;;2264344;61;20358;-59
2023/03/29 02:23:11;0.00;0.00;0.62;0.00;0.00;0.62;1.47;0.80;;;23.40;22.90;;;;;;2268518;61;20394;-59
2023/03/29 02:25:56;0.00;0.00;0.62;0.00;0.00;0.62;1.40;0.80;;;23.40;22.90;;;;;;2264586;61;20378;-58
2023/03/29 02:28:43;0.00;0.00;0.62;0.00;0.00;0.62;1.50;1.00;;;23.50;23.00;;;;;;2264969;61;20370;-56
2023/03/29 02:31:34;0.00;0.00;0.62;0.00;0.00;0.62;1.80;0.93;;;23.50;23.00;;;;;;2265423;61;20414;-58
2023/03/29 02:34:25;0.00;0.00;0.62;0.00;0.00;0.62;1.40;0.80;;;23.50;23.00;;;;;;2264462;61;20866;-60
2023/03/29 02:37:17;0.00;0.00;0.62;0.00;0.00;0.62;1.53;0.80;;;23.40;22.90;;;;;;2265137;61;20399;-60
2023/03/29 02:40:06;0.00;0.00;0.62;0.00;0.00;0.62;1.50;0.90;;;23.50;22.90;;;;;;2264637;61;20755;-56
2023/03/29 02:42:55;0.00;0.00;0.62;0.00;0.00;0.62;1.40;0.70;;;23.50;22.90;;;;;;2261773;61;20409;-61
2023/03/29 02:45:41;0.00;0.00;0.62;0.00;0.00;0.62;1.60;0.90;;;23.50;22.90;;;;;;2265421;61;20472;-60
2023/03/29 02:48:28;0.00;0.00;0.62;0.00;0.00;0.62;1.60;1.00;;;23.50;22.90;;;;;;2264580;61;20359;-58
2023/03/29 02:51:19;0.00;0.00;0.62;0.00;0.00;0.62;1.70;0.80;;;23.40;22.80;;;;;;2264965;61;20395;-59
2023/03/29 02:54:12;0.00;0.00;0.62;0.00;0.00;0.62;1.37;0.77;;;23.50;22.90;;;;;;2265048;61;20395;-62
2023/03/29 02:57:00;0.00;0.00;0.62;0.00;0.00;0.62;1.40;0.80;;;23.40;22.90;;;;;;2265013;61;20387;-59
2023/03/29 02:59:45;0.00;0.00;0.62;0.00;0.00;0.62;1.70;0.77;;;23.40;22.80;;;;;;2262887;61;20367;-59
2023/03/29 03:02:30;0.00;0.00;0.62;0.00;0.00;0.62;1.50;0.90;;;23.50;22.90;;;;;;2265584;61;20370;-62
2023/03/29 03:05:16;0.00;0.00;0.62;0.00;0.00;0.62;1.40;0.80;;;23.50;22.90;;;;;;2265007;61;20363;-61
2023/03/29 03:08:01;0.00;0.00;0.62;0.00;0.00;0.62;1.40;0.87;;;23.40;22.90;;;;;;2263190;61;20365;-56
2023/03/29 03:10:47;0.00;0.00;0.62;0.00;0.00;0.62;1.30;0.70;;;23.50;22.90;;;;;;2264519;61;20359;-58
2023/03/29 03:13:32;0.00;0.00;0.62;0.00;0.00;0.62;1.30;0.80;;;23.40;22.80;;;;;;2266184;61;20661;-60
2023/03/29 03:16:17;0.00;0.00;0.62;0.00;0.00;0.62;1.50;0.80;;;23.40;23.40;;;;;;2262737;61;20513;-60
2023/03/29 03:19:03;0.00;0.00;0.62;0.00;0.00;0.62;1.70;0.90;;;23.50;22.90;;;;;;2264799;61;20366;-54
2023/03/29 03:21:48;0.00;0.00;0.62;0.00;0.00;0.62;2.03;0.80;;;23.40;22.90;;;;;;2265844;61;20867;-61
2023/03/29 03:24:33;0.00;0.00;0.62;0.00;0.00;0.62;1.27;0.70;;;23.40;22.90;;;;;;2265523;61;20456;-59
2023/03/29 03:27:19;0.00;0.00;0.62;0.00;0.00;0.62;2.23;1.00;;;23.40;22.90;;;;;;2265636;61;20374;-63
2023/03/29 03:30:06;0.00;0.00;0.62;0.00;0.00;0.62;1.47;0.83;;;23.40;22.90;;;;;;2268539;61;20421;-56
2023/03/29 03:33:25;0.00;0.00;0.62;0.00;0.00;0.62;1.50;0.80;;;23.40;22.90;;;;;;2265959;61;20406;-59
2023/03/29 03:36:24;0.00;0.00;0.62;0.00;0.00;0.62;1.40;0.80;;;23.40;22.90;;;;;;2269020;61;20398;-62
2023/03/29 03:39:10;0.00;0.00;0.62;0.00;0.00;0.62;1.50;0.90;;;23.40;22.90;;;;;;2265270;61;20977;-56
2023/03/29 03:41:55;0.00;0.00;0.62;0.00;0.00;0.62;1.70;1.17;;;23.40;22.90;;;;;;2268655;61;20395;-59
2023/03/29 03:44:43;0.00;0.00;0.62;0.00;0.00;0.62;1.50;0.70;;;23.40;22.90;;;;;;2265695;61;20452;-55
2023/03/29 03:47:49;0.00;0.00;0.62;0.00;0.00;0.62;1.47;0.70;;;23.40;22.90;;;;;;2254964;61;20365;-58
2023/03/29 03:50:48;0.00;0.00;0.62;0.00;0.00;0.62;1.30;0.70;;;23.30;22.80;;;;;;2262759;61;20363;-58
2023/03/29 03:53:33;0.00;0.00;0.62;0.00;0.00;0.62;1.40;0.80;;;23.30;22.90;;;;;;2265452;61;20414;-57
2023/03/29 03:56:30;0.00;0.00;0.62;0.00;0.00;0.62;1.70;0.93;;;23.40;22.90;;;;;;2268649;61;20422;-55
2023/03/29 03:59:27;0.00;0.00;0.62;0.00;0.00;0.62;1.90;0.80;;;23.40;22.90;;;;;;2265634;61;20531;-57
2023/03/29 04:02:22;0.00;0.00;0.62;0.00;0.00;0.62;1.30;0.70;;;23.30;22.90;;;;;;2265038;61;20812;-57
2023/03/29 04:05:08;0.00;0.00;0.62;0.00;0.00;0.62;1.50;0.80;;;23.30;22.90;;;;;;2265422;61;20491;-57
2023/03/29 04:07:55;0.00;0.00;0.62;0.00;0.00;0.62;1.53;0.97;;;23.30;22.90;;;;;;2265978;61;20410;-58
2023/03/29 04:11:06;0.00;0.00;0.62;0.00;0.00;0.62;1.83;1.33;;;23.30;22.90;;;;;;2254653;61;20366;-60
2023/03/29 04:13:56;0.00;0.00;0.62;0.00;0.00;0.62;1.50;0.97;;;23.30;22.90;;;;;;2252875;61;20962;-55
2023/03/29 04:17:02;0.00;0.00;0.62;0.00;0.00;0.62;1.90;1.20;;;23.30;22.90;;;;;;2265209;61;21096;-56
2023/03/29 04:20:11;0.00;0.00;0.62;0.00;0.00;0.62;1.93;1.20;;;23.30;22.90;;;;;;2265304;61;20366;-55
2023/03/29 04:22:58;0.00;0.00;0.62;0.00;0.00;0.62;2.87;1.50;;;23.30;22.90;;;;;;2265435;61;20368;-57
2023/03/29 04:25:42;0.00;0.00;0.62;0.00;0.00;0.62;1.93;1.33;;;23.30;22.90;;;;;;2262255;61;20430;-58
2023/03/29 04:28:46;0.00;0.00;0.62;0.00;0.00;0.62;2.30;1.50;;;23.30;23.40;;;;;;2268908;61;20363;-61
2023/03/29 04:31:38;0.00;0.00;0.62;0.00;0.00;0.62;2.30;1.70;;;23.30;22.90;;;;;;2262433;61;20896;-61
2023/03/29 04:34:42;0.00;0.00;0.62;0.00;0.00;0.62;2.53;2.00;;;23.30;23.50;;;;;;2268881;61;20367;-58
2023/03/29 04:37:28;0.00;0.00;0.62;0.00;0.00;0.62;2.63;2.20;;;23.30;22.90;;;;;;2265711;61;20999;-55
2023/03/29 04:40:13;0.00;0.00;0.62;0.00;0.00;0.62;2.77;2.17;;;23.30;22.90;;;;;;2264817;61;20790;-59
2023/03/29 04:43:15;0.00;0.00;0.62;0.00;0.00;0.62;2.60;2.30;;;23.20;22.90;;;;;;2265530;61;20363;-57
2023/03/29 04:46:11;0.00;0.00;0.62;0.00;0.00;0.62;4.13;2.80;;;23.20;22.90;;;;;;2265544;61;20489;-58
2023/03/29 04:49:24;0.00;0.00;0.62;0.00;0.00;0.62;4.10;2.90;;;23.20;22.90;;;;;;2265011;61;20401;-58
2023/03/29 04:52:10;0.00;0.00;0.62;0.00;0.00;0.62;4.80;3.10;;;23.20;22.90;;;;;;2265751;61;20379;-56
2023/03/29 04:54:57;0.00;0.00;0.62;0.00;0.00;0.62;5.90;3.93;;;23.20;22.90;;;;;;2264759;61;20409;-60
2023/03/29 04:57:43;0.00;0.00;0.62;0.00;0.00;0.62;5.07;3.80;;;23.20;22.90;;;;;;2265636;61;20399;-54
2023/03/29 05:00:36;0.00;0.00;0.62;0.00;0.00;0.62;5.20;4.07;;;23.20;22.90;;;;;;2264787;61;20861;-57
2023/03/29 05:03:47;0.00;0.00;0.62;0.00;0.00;0.62;5.47;4.37;;;23.20;22.90;;;;;;2265114;61;20753;-60
2023/03/29 05:06:39;0.00;0.00;0.62;0.00;0.00;0.62;6.13;4.07;;;23.20;22.90;;;;;;2265255;61;20883;-58
2023/03/29 05:09:26;0.00;0.00;0.62;0.00;0.00;0.62;4.90;4.17;;;23.20;22.90;;;;;;2264088;61;20371;-56
2023/03/29 05:12:13;0.00;0.00;0.62;0.00;0.00;0.62;5.57;4.70;;;23.20;22.90;;;;;;2265827;61;20527;-60
2023/03/29 05:15:10;0.00;0.00;0.62;0.00;0.00;0.62;8.20;5.20;;;23.20;22.90;;;;;;2265150;61;20791;-54
2023/03/29 05:17:55;0.00;0.00;0.62;0.00;0.00;0.62;5.90;4.67;;;23.20;22.90;;;;;;2265071;61;20394;-58
2023/03/29 05:20:41;0.00;0.00;0.62;0.00;0.00;0.62;6.13;5.00;;;23.20;22.90;;;;;;2265171;61;20702;-59
2023/03/29 05:23:27;0.00;0.00;0.62;0.00;0.00;0.62;7.00;5.90;;;23.20;22.90;;;;;;2264932;61;20404;-63
2023/03/29 05:26:31;0.00;0.00;0.62;0.00;0.00;0.62;7.27;5.63;;;23.20;22.90;;;;;;2268788;61;20940;-58
2023/03/29 05:29:18;0.00;0.00;0.62;0.00;0.00;0.62;6.60;5.47;;;23.20;22.90;;;;;;2264902;61;20359;-59
2023/03/29 05:32:08;0.00;0.00;0.62;0.00;0.00;0.62;7.67;5.87;;;23.20;22.90;;;;;;2264997;61;20891;-55
2023/03/29 05:34:53;0.00;0.00;0.62;0.00;0.00;0.62;7.70;5.20;;;23.20;22.90;;;;;;2265220;61;21066;-60
2023/03/29 05:37:39;0.00;0.00;0.62;0.00;0.00;0.62;6.60;5.50;;;23.20;22.90;;;;;;2264980;61;20407;-59
2023/03/29 05:40:25;0.00;0.00;0.62;0.00;0.00;0.62;7.43;5.90;;;23.20;23.00;;;;;;2264488;61;20781;-58
2023/03/29 05:43:28;0.00;0.00;0.62;0.00;0.00;0.62;9.10;5.90;;;23.10;22.90;;;;;;2268405;61;20371;-59
2023/03/29 05:46:15;0.00;0.00;0.62;0.00;0.00;0.62;7.60;5.50;;;23.10;22.90;;;;;;2264439;61;20379;-63
2023/03/29 05:49:07;0.00;0.00;0.62;0.00;0.00;0.62;5.93;5.30;;;23.10;22.90;;;;;;2262431;61;20432;-61
2023/03/29 05:52:09;0.00;0.00;0.62;0.00;0.00;0.62;6.10;5.10;;;23.10;22.90;;;;;;2265006;61;20409;-56
2023/03/29 05:54:55;0.00;0.00;0.62;0.00;0.00;0.62;7.50;5.43;;;23.10;22.90;;;;;;2265034;61;20363;-58
2023/03/29 05:57:40;0.00;0.00;0.62;0.00;0.00;0.62;6.87;5.40;;;23.10;22.90;;;;;;2265363;61;20992;-61
2023/03/29 06:00:25;0.00;0.00;0.62;0.00;0.00;0.62;7.57;5.47;;;23.10;22.90;;;;;;2267921;61;20799;-59
2023/03/29 06:03:26;0.00;0.00;0.62;0.00;0.00;0.62;7.17;5.83;;;23.10;22.90;;;;;;2265209;61;20405;-55
2023/03/29 06:06:15;0.00;0.00;0.62;0.00;0.00;0.62;6.20;4.77;;;23.10;22.90;;;;;;2268824;61;20969;-60
2023/03/29 06:09:01;0.00;0.00;0.62;0.00;0.00;0.62;7.07;5.53;;;23.10;22.90;;;;;;2264325;61;20413;-60
2023/03/29 06:12:07;0.00;0.00;0.62;0.00;0.00;0.62;6.23;4.90;;;23.10;23.00;;;;;;2265282;61;20445;-60
2023/03/29 06:15:03;0.00;0.00;0.62;0.00;0.00;0.62;6.87;5.57;;;23.10;23.00;;;;;;2265101;61;20401;-63
2023/03/29 06:18:09;0.00;0.00;0.62;0.00;0.00;0.62;8.17;5.37;;;23.10;23.00;;;;;;2265187;61;20383;-62
2023/03/29 06:20:56;0.00;0.00;0.62;0.00;0.00;0.62;5.53;4.90;;;23.10;23.00;;;;;;2265236;61;20367;-62
2023/03/29 06:23:41;0.00;0.00;0.62;0.00;0.00;0.62;6.37;5.00;;;23.10;23.00;;;;;;2261957;61;20478;-63
2023/03/29 06:26:29;0.00;0.00;0.62;0.00;0.00;0.62;6.37;5.20;;;23.10;23.00;;;;;;2265520;61;20962;-63
2023/03/29 06:29:14;0.00;0.00;0.62;0.00;0.00;0.62;6.13;5.10;;;23.10;23.00;;;;;;2267774;61;20892;-64
2023/03/29 06:32:00;0.00;0.00;0.62;0.00;0.00;0.62;5.00;4.40;;;23.10;23.00;;;;;;2266208;61;20858;-62
2023/03/29 06:35:11;0.00;0.00;0.62;0.00;0.00;0.62;5.80;5.30;;;23.10;23.00;;;;;;2269802;61;20363;-64
2023/03/29 06:37:59;0.00;0.00;0.62;0.00;0.00;0.62;6.53;4.80;;;23.10;23.00;;;;;;2266013;61;20387;-63
2023/03/29 06:41:06;0.00;0.00;0.62;0.00;0.00;0.62;5.40;4.60;;;23.10;23.00;;;;;;2264770;61;20375;-63
2023/03/29 06:44:12;0.00;0.00;0.62;0.00;0.00;0.62;5.20;4.60;;;23.10;23.00;;;;;;2266338;61;20979;-62
2023/03/29 06:47:16;0.00;0.00;0.62;0.00;0.00;0.62;6.23;4.80;;;23.10;23.10;;;;;;2266461;61;20390;-63
2023/03/29 06:50:01;0.00;0.00;0.62;0.00;0.00;0.62;5.53;4.30;;;23.10;23.10;;;;;;2266234;61;20857;-62
2023/03/29 06:52:55;0.00;0.00;0.62;0.00;0.00;0.62;6.17;4.80;;;23.10;23.10;;;;;;2263450;61;20811;-62
2023/03/29 06:55:42;0.00;0.00;0.62;0.00;0.00;0.62;4.83;4.10;;;23.10;23.10;;;;;;2266716;61;20429;-61
2023/03/29 06:58:50;0.00;0.00;0.62;0.00;0.00;0.62;6.07;4.90;;;23.10;23.10;;;;;;2266323;61;20794;-63
2023/03/29 07:01:51;0.00;0.00;0.62;0.00;0.00;0.62;5.67;4.73;;;23.10;23.10;;;;;;2266144;61;20421;-63
2023/03/29 07:05:00;0.00;0.00;0.62;0.00;0.00;0.62;5.30;4.50;;;23.10;23.10;;;;;;2269834;61;20358;-63
2023/03/29 07:07:58;0.00;0.00;0.62;0.00;0.00;0.62;4.90;3.90;;;23.10;23.10;;;;;;2265798;61;20339;-63
2023/03/29 07:11:15;0.00;0.00;0.62;0.00;0.00;0.62;5.80;4.83;;;23.10;23.10;;;;;;2268869;61;20375;-63
2023/03/29 07:14:11;0.00;0.00;0.62;0.00;0.00;0.62;6.40;4.77;;;23.10;23.10;;;;;;2266133;61;20374;-63
2023/03/29 07:16:57;0.00;0.00;0.62;0.00;0.00;0.62;4.77;3.77;;;23.10;23.10;;;;;;2266209;61;20848;-63
2023/03/29 07:19:53;0.00;0.00;0.62;0.00;0.00;0.62;5.30;4.07;;;23.10;23.10;;;;;;2266643;61;20497;-62
2023/03/29 07:23:10;0.00;0.00;0.62;0.00;0.00;0.62;4.33;3.80;;;23.10;23.10;;;;;;2259950;61;20360;-63
2023/03/29 07:25:56;0.00;0.00;0.62;0.00;0.00;0.62;4.93;4.43;;;23.10;23.10;;;;;;2258027;61;20408;-60
2023/03/29 07:28:42;0.00;0.00;0.62;0.00;0.00;0.62;4.60;3.60;;;23.10;23.10;;;;;;2254758;61;20356;-61
2023/03/29 07:31:33;0.00;0.00;0.62;0.00;0.00;0.62;4.50;3.83;;;23.10;23.10;;;;;;2257282;61;20415;-63
2023/03/29 07:34:38;0.00;0.00;0.62;0.00;0.00;0.62;5.07;3.87;;;23.10;23.10;;;;;;2269601;61;20359;-63
2023/03/29 07:37:26;0.00;0.00;0.62;0.00;0.00;0.62;3.77;3.40;;;23.10;23.10;;;;;;2265704;61;20386;-63
2023/03/29 07:40:17;0.00;0.00;0.62;0.00;0.00;0.62;5.43;3.80;;;23.10;23.10;;;;;;2266235;61;20367;-63
2023/03/29 07:43:23;0.00;0.00;0.62;0.00;0.00;0.62;4.50;3.37;;;23.10;23.10;;;;;;2247476;61;20368;-62
2023/03/29 07:46:10;0.00;0.00;0.62;0.00;0.00;0.62;5.00;4.20;;;23.10;23.10;;;;;;2268604;61;20881;-63
2023/03/29 07:48:56;0.00;0.00;0.62;0.00;0.00;0.62;4.37;3.50;;;23.10;23.10;;;;;;2265588;61;20359;-62
2023/03/29 07:51:42;0.00;0.00;0.62;0.00;0.00;0.62;4.30;3.77;;;23.10;23.10;;;;;;2265205;61;20371;-63
2023/03/29 07:54:31;0.00;0.00;0.62;0.00;0.00;0.62;4.63;3.47;;;23.10;23.10;;;;;;2265785;61;20367;-63
2023/03/29 07:57:45;0.00;0.00;0.62;0.00;0.00;0.62;4.83;3.87;;;23.10;23.10;;;;;;2267204;61;20387;-63
2023/03/29 08:00:31;0.00;0.00;0.62;0.00;0.00;0.62;4.53;3.97;;;23.10;23.10;;;;;;2264851;61;20405;-61
2023/03/29 08:03:36;0.00;0.00;0.62;0.00;0.00;0.62;4.47;3.37;;;23.10;23.10;;;;;;2502869;53;20410;-63
2023/03/29 08:06:25;0.00;0.00;0.62;0.00;0.00;0.62;4.60;3.80;;;23.10;23.10;;;;;;2261188;61;20375;-63
2023/03/29 08:09:11;0.00;0.00;0.62;0.00;0.00;0.62;4.23;3.70;;;23.10;23.60;;;;;;2261245;61;20470;-62
2023/03/29 08:12:00;0.00;0.00;0.62;0.00;0.00;0.62;3.67;3.27;;;23.10;23.10;;;;;;2262015;61;20359;-63
2023/03/29 08:14:52;0.00;0.00;0.62;0.00;0.00;0.62;4.47;3.77;;;23.10;23.10;;;;;;2261206;61;20460;-63
2023/03/29 08:17:43;0.00;0.00;0.62;0.00;0.00;0.62;6.23;2.83;;;23.10;23.10;;;;;;2261811;61;20650;-62
2023/03/29 08:20:29;0.00;0.00;0.62;0.00;0.00;0.62;4.57;3.60;;;23.10;23.10;;;;;;2264439;61;20371;-63
2023/03/29 08:23:20;0.00;0.00;0.62;0.00;0.00;0.62;3.63;3.03;;;23.10;23.10;;;;;;2265345;61;20360;-63
2023/03/29 08:26:30;0.00;0.00;0.62;0.00;0.00;0.62;3.30;2.90;;;23.10;23.10;;;;;;2265982;61;20394;-63
2023/03/29 08:29:16;0.00;0.00;0.62;0.00;0.00;0.62;4.20;3.43;;;23.10;23.10;;;;;;2264313;61;20759;-63
2023/03/29 08:32:03;0.00;0.00;0.62;0.00;0.00;0.62;4.47;3.70;;;23.10;23.10;;;;;;2263088;61;20896;-63
2023/03/29 08:34:49;0.00;0.00;0.62;0.00;0.00;0.62;3.50;2.60;;;23.10;23.10;;;;;;2265250;61;20475;-63
2023/03/29 08:37:42;0.00;0.00;0.62;0.00;0.00;0.62;3.63;3.13;;;23.10;23.20;;;;;;2265190;61;20390;-63
2023/03/29 08:40:29;0.00;0.00;0.62;0.00;0.00;0.62;3.77;2.90;;;23.10;23.10;;;;;;2265611;61;20452;-63
2023/03/29 08:44:13;0.00;0.00;0.62;0.00;0.00;0.62;3.33;2.97;;;23.10;23.10;;;;;;2265100;61;20362;-63
2023/03/29 08:47:13;0.00;0.00;0.62;0.00;0.00;0.62;4.77;3.20;;;23.10;23.10;;;;;;2249080;61;20378;-63
2023/03/29 08:50:02;0.00;0.00;0.62;0.00;0.00;0.62;4.00;3.23;;;23.10;23.10;;;;;;2248212;61;20851;-63
2023/03/29 08:53:04;0.00;0.00;0.62;0.00;0.00;0.62;3.90;3.00;;;23.10;23.10;;;;;;2264971;61;20436;-63
2023/03/29 08:56:13;0.00;0.00;0.62;0.00;0.00;0.62;4.30;2.90;;;23.10;23.10;;;;;;2251564;61;20414;-63
2023/03/29 08:59:21;0.00;0.00;0.62;0.00;0.00;0.62;4.10;2.90;;;23.10;23.20;;;;;;2268065;61;20417;-63
2023/03/29 09:02:16;0.00;0.00;0.62;0.00;0.00;0.62;3.73;3.10;;;23.10;23.20;;;;;;2265786;61;20387;-62
2023/03/29 09:05:16;0.00;0.00;0.62;0.00;0.00;0.62;5.20;4.00;;;23.10;23.20;;;;;;2265451;61;20777;-63
2023/03/29 09:08:12;0.00;0.00;0.62;0.00;0.00;0.62;3.83;3.43;;;23.10;23.20;;;;;;2268613;61;20405;-62
2023/03/29 09:11:26;0.00;0.00;0.62;0.00;0.00;0.62;4.73;3.67;;;23.10;23.20;;;;;;2265166;61;20813;-62
2023/03/29 09:14:33;0.00;0.00;0.62;0.00;0.00;0.62;5.10;4.20;;;23.10;23.10;;;;;;2265264;61;20908;-63
2023/03/29 09:17:37;0.00;0.00;0.62;0.00;0.00;0.62;4.27;3.37;;;23.10;23.20;;;;;;2265551;61;20378;-61
2023/03/29 09:20:36;0.00;0.00;0.62;0.00;0.00;0.62;5.00;4.40;;;23.10;23.20;;;;;;2264829;61;20848;-63
2023/03/29 09:23:47;0.00;0.00;0.62;0.00;0.00;0.62;4.07;3.60;;;23.10;23.20;;;;;;2268960;61;20367;-63
2023/03/29 09:26:47;0.00;0.00;0.62;0.00;0.00;0.62;4.80;3.97;;;23.10;23.20;;;;;;2265321;61;20392;-63
2023/03/29 09:29:55;0.00;0.00;0.62;0.00;0.00;0.62;5.00;3.80;;;23.10;23.20;;;;;;2264796;61;20378;-63
2023/03/29 09:32:51;0.00;0.00;0.62;0.00;0.00;0.62;4.93;3.87;;;23.10;23.20;;;;;;2265713;61;20964;-63
2023/03/29 09:35:46;0.00;0.00;0.62;0.00;0.00;0.62;5.07;4.17;;;23.10;23.10;;;;;;2264766;61;20398;-63
2023/03/29 09:38:36;0.00;0.00;0.62;0.00;0.00;0.62;4.10;3.70;;;23.10;23.20;;;;;;2265566;61;20467;-63
2023/03/29 09:41:26;0.00;0.00;0.62;0.00;0.00;0.62;5.53;4.17;;;23.10;23.10;;;;;;2265318;61;20425;-63
2023/03/29 09:44:16;0.00;0.00;0.62;0.00;0.00;0.62;4.93;3.97;;;23.10;23.20;;;;;;2265334;61;20358;-64
2023/03/29 09:47:07;0.00;0.00;0.62;0.00;0.00;0.62;4.90;4.40;;;23.10;23.10;;;;;;2265499;61;20387;-64
2023/03/29 09:49:58;0.00;0.00;0.62;0.00;0.00;0.62;5.50;4.43;;;23.10;23.10;;;;;;2264707;61;20435;-63
2023/03/29 09:52:43;0.00;0.00;0.62;0.00;0.00;0.62;5.70;4.47;;;23.10;23.20;;;;;;2265537;61;20922;-63
2023/03/29 09:55:39;0.00;0.00;0.62;0.00;0.00;0.62;5.60;4.90;;;23.10;23.10;;;;;;2265551;61;20379;-63
2023/03/29 09:58:32;0.00;0.00;0.62;0.00;0.00;0.62;5.13;3.97;;;23.10;23.10;;;;;;2264984;61;20395;-63
2023/03/29 10:01:17;0.00;0.00;0.62;0.00;0.00;0.62;5.17;4.00;;;23.10;23.10;;;;;;2265300;61;20399;-63
2023/03/29 10:04:07;0.00;0.00;0.62;0.00;0.00;0.62;5.23;4.70;;;23.10;23.10;;;;;;2265340;61;20399;-64
2023/03/29 10:06:52;0.00;0.00;0.62;0.00;0.00;0.62;4.43;3.93;;;23.10;23.10;;;;;;2268344;61;20444;-63
2023/03/29 10:09:38;0.00;0.00;0.62;0.00;0.00;0.62;5.13;3.93;;;23.10;23.10;;;;;;2262163;61;20355;-63
2023/03/29 10:12:36;0.00;0.00;0.62;0.00;0.00;0.62;4.20;3.37;;;23.10;23.10;;;;;;2264942;61;20782;-63
2023/03/29 10:15:21;0.00;0.00;0.62;0.00;0.00;0.62;4.90;4.10;;;23.10;23.10;;;;;;2268592;61;20367;-63
2023/03/29 10:18:12;0.00;0.00;0.62;0.00;0.00;0.62;5.67;4.40;;;23.10;23.10;;;;;;2268526;61;20393;-63
2023/03/29 10:20:59;0.00;0.00;0.62;0.00;0.00;0.62;4.80;4.00;;;23.10;23.20;;;;;;2267909;61;20355;-63
2023/03/29 10:23:43;0.00;0.00;0.62;0.00;0.00;0.62;4.80;4.30;;;23.10;23.10;;;;;;2268480;61;20359;-63
2023/03/29 10:26:31;0.00;0.00;0.62;0.00;0.00;0.62;4.13;3.67;;;23.10;23.10;;;;;;2268371;61;20441;-64
2023/03/29 10:29:18;0.00;0.00;0.62;0.00;0.00;0.62;4.10;3.57;;;23.10;23.10;;;;;;2267884;61;20355;-63
2023/03/29 10:32:14;0.00;0.00;0.62;0.00;0.00;0.62;4.90;4.20;;;23.10;23.10;;;;;;2265412;61;20370;-63
2023/03/29 10:35:07;0.00;0.00;0.62;0.00;0.00;0.62;5.10;4.20;;;23.10;23.20;;;;;;2264669;61;20343;-62
2023/03/29 10:37:54;0.00;0.00;0.62;0.00;0.00;0.62;4.63;3.70;;;23.10;23.10;;;;;;2268586;61;21084;-63
2023/03/29 10:40:46;0.00;0.00;0.62;0.00;0.00;0.62;4.17;3.57;;;23.20;23.20;;;;;;2268107;61;20367;-63
2023/03/29 10:43:37;0.00;0.00;0.62;0.00;0.00;0.62;5.23;3.80;;;23.10;23.10;;;;;;2267960;61;20360;-63
2023/03/29 10:46:28;0.00;0.00;0.62;0.00;0.00;0.62;4.57;3.17;;;23.10;23.10;;;;;;2268841;61;20806;-62
2023/03/29 10:49:19;0.00;0.00;0.62;0.00;0.00;0.62;4.33;3.90;;;23.10;23.10;;;;;;2267603;61;20356;-63
2023/03/29 10:52:08;0.00;0.00;0.62;0.00;0.00;0.62;4.10;3.67;;;23.20;23.20;;;;;;2268669;61;20895;-63
2023/03/29 10:54:55;0.00;0.00;0.62;0.00;0.00;0.62;4.30;3.20;;;23.20;23.20;;;;;;2262728;61;20937;-62
2023/03/29 10:57:52;0.00;0.00;0.62;0.00;0.00;0.62;4.53;3.90;;;23.10;23.20;;;;;;2264890;61;20993;-63
2023/03/29 11:00:45;0.00;0.00;0.62;0.00;0.00;0.62;4.20;3.80;;;23.10;23.20;;;;;;2268230;61;20371;-63
2023/03/29 11:04:02;0.00;0.00;0.62;0.00;0.00;0.62;4.33;3.77;;;23.20;23.20;;;;;;2268244;61;20367;-64
2023/03/29 11:06:59;0.00;0.00;0.62;0.00;0.00;0.62;3.43;3.13;;;23.20;23.20;;;;;;2268376;61;20470;-63
2023/03/29 11:09:54;0.00;0.00;0.62;0.00;0.00;0.62;4.23;3.83;;;23.20;23.20;;;;;;2268231;61;20358;-63
2023/03/29 11:12:46;0.00;0.00;0.62;0.00;0.00;0.62;4.57;3.57;;;23.20;23.30;;;;;;2262132;61;20408;-64
2023/03/29 11:15:55;0.00;0.00;0.62;0.00;0.00;0.62;5.33;4.00;;;23.20;23.30;;;;;;2268824;61;20934;-63
2023/03/29 11:19:05;0.00;0.00;0.62;0.00;0.00;0.62;5.37;4.20;;;23.10;23.20;;;;;;2268437;61;20367;-63
2023/03/29 11:21:58;0.00;0.00;0.62;0.00;0.00;0.62;4.20;3.30;;;23.20;23.30;;;;;;2269465;61;20363;-63